Terminal Aerodrome Forecast
Issued by NWS

Home | Current Version | Previous Version | Text Only | Print | Product List | Glossary On
Versions: 1 2 3 4 5 6 7 8 9 10 11 12 13 14 15 16 17
397
FTUS42 KGSP 302336
TAFAND
TAF
KAND 302336Z 0100/0124 16007KT P6SM BKN060
     FM010800 17011KT P6SM SCT007 OVC020 PROB30 0109/0114 4SM -SHRA
      OVC007
     FM011400 19016G24KT 6SM -SHRA VCTS OVC015CB
     FM011800 23014G22KT 4SM TSRA OVC050CB
     FM012100 22014G22KT P6SM VCTS BKN060CB
     FM012200 22013G20KT P6SM SCT200=

USA.gov is the U.S. government's official web portal to all federal, state and local government web resources and services.